sensor_id;sensor_type;location;lat;lon;timestamp;temperature;humidity
1896;DHT22;1455;51.440;7.308;2022-08-04T00:02:24;25.50;99.90
1896;DHT22;1455;51.440;7.308;2022-08-04T00:05:16;25.50;99.90
1896;DHT22;1455;51.440;7.308;2022-08-04T00:08:06;25.50;99.90
1896;DHT22;1455;51.440;7.308;2022-08-04T00:10:57;25.40;99.90
1896;DHT22;1455;51.440;7.308;2022-08-04T00:13:52;25.40;99.90
1896;DHT22;1455;51.440;7.308;2022-08-04T00:16:42;25.40;99.90
1896;DHT22;1455;51.440;7.308;2022-08-04T00:19:32;25.40;99.90
1896;DHT22;1455;51.440;7.308;2022-08-04T00:22:21;25.40;99.90
1896;DHT22;1455;51.440;7.308;2022-08-04T00:25:08;25.40;99.90
1896;DHT22;1455;51.440;7.308;2022-08-04T00:27:54;25.30;99.90
1896;DHT22;1455;51.440;7.308;2022-08-04T00:30:43;25.30;99.90
1896;DHT22;1455;51.440;7.308;2022-08-04T00:33:29;25.20;99.90
1896;DHT22;1455;51.440;7.308;2022-08-04T00:36:18;25.20;99.90
1896;DHT22;1455;51.440;7.308;2022-08-04T00:39:04;25.20;99.90
1896;DHT22;1455;51.440;7.308;2022-08-04T00:42:04;25.20;99.90
1896;DHT22;1455;51.440;7.308;2022-08-04T00:45:19;25.20;99.90
1896;DHT22;1455;51.440;7.308;2022-08-04T00:48:18;25.10;99.90
1896;DHT22;1455;51.440;7.308;2022-08-04T00:51:20;25.10;99.90
1896;DHT22;1455;51.440;7.308;2022-08-04T00:54:11;25.00;99.90
1896;DHT22;1455;51.440;7.308;2022-08-04T00:57:06;25.00;99.90
1896;DHT22;1455;51.440;7.308;2022-08-04T01:00:05;24.90;99.90
1896;DHT22;1455;51.440;7.308;2022-08-04T01:03:07;24.80;99.90
1896;DHT22;1455;51.440;7.308;2022-08-04T01:06:02;24.80;99.90
1896;DHT22;1455;51.440;7.308;2022-08-04T01:08:59;24.70;99.90
1896;DHT22;1455;51.440;7.308;2022-08-04T01:12:12;24.70;99.90
1896;DHT22;1455;51.440;7.308;2022-08-04T01:15:06;24.60;99.90
1896;DHT22;1455;51.440;7.308;2022-08-04T01:18:03;24.60;99.90
1896;DHT22;1455;51.440;7.308;2022-08-04T01:20:55;24.50;99.90
1896;DHT22;1455;51.440;7.308;2022-08-04T01:24:23;24.50;99.90
1896;DHT22;1455;51.440;7.308;2022-08-04T01:27:24;24.50;99.90
1896;DHT22;1455;51.440;7.308;2022-08-04T01:30:15;24.40;99.90
1896;DHT22;1455;51.440;7.308;2022-08-04T01:33:03;24.40;99.90
1896;DHT22;1455;51.440;7.308;2022-08-04T01:35:59;24.40;99.90
1896;DHT22;1455;51.440;7.308;2022-08-04T01:38:49;24.30;99.90
1896;DHT22;1455;51.440;7.308;2022-08-04T01:41:36;24.30;99.90
1896;DHT22;1455;51.440;7.308;2022-08-04T01:44:27;24.30;99.90
1896;DHT22;1455;51.440;7.308;2022-08-04T01:47:19;24.30;99.90
1896;DHT22;1455;51.440;7.308;2022-08-04T01:50:08;24.30;99.90
1896;DHT22;1455;51.440;7.308;2022-08-04T01:52:58;24.20;99.90
1896;DHT22;1455;51.440;7.308;2022-08-04T01:55:48;24.20;99.90
1896;DHT22;1455;51.440;7.308;2022-08-04T01:58:38;24.20;99.90
1896;DHT22;1455;51.440;7.308;2022-08-04T02:01:24;24.20;99.90
1896;DHT22;1455;51.440;7.308;2022-08-04T02:04:19;24.10;99.90
1896;DHT22;1455;51.440;7.308;2022-08-04T02:07:31;24.10;99.90
1896;DHT22;1455;51.440;7.308;2022-08-04T02:10:27;24.00;99.90
1896;DHT22;1455;51.440;7.308;2022-08-04T02:13:20;24.00;99.90
1896;DHT22;1455;51.440;7.308;2022-08-04T02:16:11;24.00;99.90
1896;DHT22;1455;51.440;7.308;2022-08-04T02:19:08;23.90;99.90
1896;DHT22;1455;51.440;7.308;2022-08-04T02:22:07;23.80;99.90
1896;DHT22;1455;51.440;7.308;2022-08-04T02:24:57;23.80;99.90
1896;DHT22;1455;51.440;7.308;2022-08-04T02:27:54;23.70;99.90
1896;DHT22;1455;51.440;7.308;2022-08-04T02:30:45;23.70;99.90
1896;DHT22;1455;51.440;7.308;2022-08-04T02:33:39;23.60;99.90
1896;DHT22;1455;51.440;7.308;2022-08-04T02:36:29;23.60;99.90
1896;DHT22;1455;51.440;7.308;2022-08-04T02:39:19;23.60;99.90
1896;DHT22;1455;51.440;7.308;2022-08-04T02:42:06;23.60;99.90
1896;DHT22;1455;51.440;7.308;2022-08-04T02:44:56;23.50;99.90
1896;DHT22;1455;51.440;7.308;2022-08-04T02:47:43;23.50;99.90
1896;DHT22;1455;51.440;7.308;2022-08-04T02:50:29;23.40;99.90
1896;DHT22;1455;51.440;7.308;2022-08-04T02:53:19;23.40;99.90
1896;DHT22;1455;51.440;7.308;2022-08-04T02:56:08;23.40;99.90
1896;DHT22;1455;51.440;7.308;2022-08-04T02:58:58;23.30;99.90
1896;DHT22;1455;51.440;7.308;2022-08-04T03:01:44;23.30;99.90
1896;DHT22;1455;51.440;7.308;2022-08-04T03:04:39;23.30;99.90
1896;DHT22;1455;51.440;7.308;2022-08-04T03:07:45;23.30;99.90
1896;DHT22;1455;51.440;7.308;2022-08-04T03:14:24;23.20;99.90
1896;DHT22;1455;51.440;7.308;2022-08-04T03:23:59;23.20;99.90
1896;DHT22;1455;51.440;7.308;2022-08-04T03:27:11;23.10;99.90
1896;DHT22;1455;51.440;7.308;2022-08-04T03:30:10;23.20;99.90
1896;DHT22;1455;51.440;7.308;2022-08-04T03:33:26;23.10;99.90
1896;DHT22;1455;51.440;7.308;2022-08-04T03:43:34;23.00;99.90
1896;DHT22;1455;51.440;7.308;2022-08-04T03:46:53;23.00;99.90
1896;DHT22;1455;51.440;7.308;2022-08-04T09:25:33;34.80;72.30
1896;DHT22;1455;51.440;7.308;2022-08-04T09:28:50;35.00;72.30
1896;DHT22;1455;51.440;7.308;2022-08-04T21:21:22;26.70;99.90
1896;DHT22;1455;51.440;7.308;2022-08-04T21:24:08;26.70;99.90
1896;DHT22;1455;51.440;7.308;2022-08-04T21:26:59;26.70;99.90
1896;DHT22;1455;51.440;7.308;2022-08-04T21:29:56;26.70;99.90
1896;DHT22;1455;51.440;7.308;2022-08-04T21:32:42;26.60;99.90
1896;DHT22;1455;51.440;7.308;2022-08-04T21:35:28;26.60;99.90
1896;DHT22;1455;51.440;7.308;2022-08-04T21:38:15;26.60;99.90
1896;DHT22;1455;51.440;7.308;2022-08-04T21:41:01;26.60;99.90
1896;DHT22;1455;51.440;7.308;2022-08-04T21:43:47;26.50;99.90
1896;DHT22;1455;51.440;7.308;2022-08-04T21:46:33;26.50;99.90
1896;DHT22;1455;51.440;7.308;2022-08-04T21:49:19;26.50;99.90
1896;DHT22;1455;51.440;7.308;2022-08-04T21:52:05;26.50;99.90
1896;DHT22;1455;51.440;7.308;2022-08-04T21:54:52;26.50;99.90
1896;DHT22;1455;51.440;7.308;2022-08-04T21:57:40;26.40;99.90
1896;DHT22;1455;51.440;7.308;2022-08-04T22:00:26;26.30;99.90
1896;DHT22;1455;51.440;7.308;2022-08-04T22:03:14;26.20;99.90
1896;DHT22;1455;51.440;7.308;2022-08-04T22:06:00;26.10;99.90
1896;DHT22;1455;51.440;7.308;2022-08-04T22:08:46;26.00;99.90
1896;DHT22;1455;51.440;7.308;2022-08-04T22:11:35;25.90;99.90
1896;DHT22;1455;51.440;7.308;2022-08-04T22:14:22;25.90;99.90
1896;DHT22;1455;51.440;7.308;2022-08-04T22:17:09;25.80;99.90
1896;DHT22;1455;51.440;7.308;2022-08-04T22:19:55;25.70;99.90
1896;DHT22;1455;51.440;7.308;2022-08-04T22:22:44;25.60;99.90
1896;DHT22;1455;51.440;7.308;2022-08-04T22:25:46;25.60;99.90
1896;DHT22;1455;51.440;7.308;2022-08-04T22:32:02;25.50;99.90
1896;DHT22;1455;51.440;7.308;2022-08-04T22:34:49;25.50;99.90
1896;DHT22;1455;51.440;7.308;2022-08-04T22:37:35;25.50;99.90
1896;DHT22;1455;51.440;7.308;2022-08-04T22:40:21;25.50;99.90
1896;DHT22;1455;51.440;7.308;2022-08-04T22:43:07;25.50;99.90
1896;DHT22;1455;51.440;7.308;2022-08-04T22:45:53;25.50;99.90
1896;DHT22;1455;51.440;7.308;2022-08-04T22:48:41;25.50;99.90
1896;DHT22;1455;51.440;7.308;2022-08-04T22:51:26;25.50;99.90
1896;DHT22;1455;51.440;7.308;2022-08-04T22:54:12;25.50;99.90
1896;DHT22;1455;51.440;7.308;2022-08-04T22:57:06;25.40;99.90
1896;DHT22;1455;51.440;7.308;2022-08-04T22:59:56;25.20;99.90
1896;DHT22;1455;51.440;7.308;2022-08-04T23:02:42;25.20;99.90
1896;DHT22;1455;51.440;7.308;2022-08-04T23:05:30;25.20;99.90
1896;DHT22;1455;51.440;7.308;2022-08-04T23:08:19;25.20;99.90
1896;DHT22;1455;51.440;7.308;2022-08-04T23:11:07;25.20;99.90
1896;DHT22;1455;51.440;7.308;2022-08-04T23:13:55;25.20;99.90
1896;DHT22;1455;51.440;7.308;2022-08-04T23:16:41;25.20;99.90
1896;DHT22;1455;51.440;7.308;2022-08-04T23:19:27;25.20;99.90
1896;DHT22;1455;51.440;7.308;2022-08-04T23:22:14;25.20;99.90
1896;DHT22;1455;51.440;7.308;2022-08-04T23:25:02;25.20;99.90
1896;DHT22;1455;51.440;7.308;2022-08-04T23:27:53;25.20;99.90
1896;DHT22;1455;51.440;7.308;2022-08-04T23:30:40;25.20;99.90
1896;DHT22;1455;51.440;7.308;2022-08-04T23:33:27;24.90;99.90
1896;DHT22;1455;51.440;7.308;2022-08-04T23:36:15;24.60;99.90
1896;DHT22;1455;51.440;7.308;2022-08-04T23:39:04;24.20;99.90
1896;DHT22;1455;51.440;7.308;2022-08-04T23:41:50;23.90;99.90
1896;DHT22;1455;51.440;7.308;2022-08-04T23:44:36;23.80;99.90
1896;DHT22;1455;51.440;7.308;2022-08-04T23:47:22;23.60;99.90
1896;DHT22;1455;51.440;7.308;2022-08-04T23:50:08;23.60;99.90
1896;DHT22;1455;51.440;7.308;2022-08-04T23:52:58;23.50;99.90
1896;DHT22;1455;51.440;7.308;2022-08-04T23:55:45;23.50;99.90
1896;DHT22;1455;51.440;7.308;2022-08-04T23:58:31;23.50;99.90
